createdAt,value
2022-09-13T00:01:30.032Z,16.88
2022-09-13T00:03:57.132Z,18.38
2022-09-13T00:06:24.268Z,17.77
2022-09-13T00:08:53.530Z,17.15
2022-09-13T00:11:23.708Z,20.83
2022-09-13T00:13:51.075Z,22.02
2022-09-13T00:16:20.621Z,21.00
2022-09-13T00:18:48.169Z,22.15
2022-09-13T00:21:17.311Z,18.92
2022-09-13T00:23:48.779Z,20.48
2022-09-13T00:26:18.797Z,17.45
2022-09-13T00:28:45.988Z,17.75
2022-09-13T00:31:13.019Z,17.92
2022-09-13T00:33:40.501Z,19.52
2022-09-13T00:36:11.220Z,18.58
2022-09-13T00:38:39.158Z,18.92
2022-09-13T00:41:07.938Z,18.15
2022-09-13T00:43:45.632Z,23.35
2022-09-13T00:46:18.038Z,21.15
2022-09-13T00:48:47.771Z,19.73
2022-09-13T00:51:15.315Z,18.13
2022-09-13T00:53:48.776Z,20.40
2022-09-13T00:56:38.931Z,20.05
2022-09-13T00:59:12.813Z,21.42
2022-09-13T01:01:48.124Z,19.13
2022-09-13T01:04:16.549Z,22.15
2022-09-13T01:06:43.987Z,19.63
2022-09-13T01:09:12.892Z,19.80
2022-09-13T01:11:42.517Z,22.17
2022-09-13T01:14:10.103Z,18.73
2022-09-13T01:16:36.995Z,20.00
2022-09-13T01:19:04.225Z,20.52
2022-09-13T01:22:02.089Z,24.88
2022-09-13T01:24:53.723Z,17.92
2022-09-13T01:27:41.009Z,21.42
2022-09-13T01:30:52.027Z,19.55
2022-09-13T01:33:32.022Z,18.00
2022-09-13T01:36:31.963Z,26.45
2022-09-13T01:39:16.910Z,18.15
2022-09-13T01:41:59.549Z,20.08
2022-09-13T01:44:29.030Z,18.90
2022-09-13T01:47:04.790Z,21.15
2022-09-13T01:49:44.191Z,20.58
2022-09-13T01:52:32.918Z,17.77
2022-09-13T01:55:11.807Z,19.45
2022-09-13T01:57:49.242Z,19.85
2022-09-13T02:00:18.449Z,18.13
2022-09-13T02:03:08.847Z,21.20
2022-09-13T02:05:53.843Z,16.48
2022-09-13T02:08:34.749Z,24.30
2022-09-13T02:11:09.524Z,23.73
2022-09-13T02:13:48.189Z,25.00
2022-09-13T02:16:32.124Z,19.80
2022-09-13T02:19:08.732Z,22.80
2022-09-13T02:21:40.006Z,24.10
2022-09-13T02:24:21.716Z,20.40
2022-09-13T02:26:53.307Z,20.77
2022-09-13T02:29:24.713Z,19.75
2022-09-13T02:32:16.173Z,19.77
2022-09-13T02:34:54.158Z,19.67
2022-09-13T02:37:23.217Z,19.33
2022-09-13T02:39:57.808Z,22.60
2022-09-13T02:42:36.471Z,20.13
2022-09-13T02:45:03.895Z,23.77
2022-09-13T02:47:42.776Z,22.67
2022-09-13T02:50:30.252Z,18.10
2022-09-13T02:53:15.119Z,25.50
2022-09-13T02:56:00.305Z,21.83
2022-09-13T02:59:08.595Z,23.20
2022-09-13T03:01:37.728Z,22.13
2022-09-13T03:04:04.669Z,20.88
2022-09-13T03:06:31.712Z,20.98
2022-09-13T03:09:03.934Z,20.65
2022-09-13T03:11:33.544Z,21.73
2022-09-13T03:14:20.766Z,18.67
2022-09-13T03:17:11.239Z,22.88
2022-09-13T03:19:48.866Z,23.70
2022-09-13T03:22:52.618Z,23.67
2022-09-13T03:25:25.451Z,21.00
2022-09-13T03:28:13.948Z,21.63
2022-09-13T03:30:49.636Z,28.70
2022-09-13T03:33:36.681Z,24.42
2022-09-13T03:36:33.322Z,20.40
2022-09-13T03:39:15.216Z,23.13
2022-09-13T03:41:48.642Z,19.52
2022-09-13T03:46:54.914Z,19.45
2022-09-13T03:49:23.626Z,20.02
2022-09-13T03:51:52.942Z,19.40
2022-09-13T03:54:19.791Z,18.77
2022-09-13T03:57:11.587Z,21.73
2022-09-13T03:59:42.304Z,20.02
2022-09-13T04:02:12.069Z,22.38
2022-09-13T04:04:40.636Z,18.70
2022-09-13T04:07:08.436Z,21.90
2022-09-13T04:09:35.342Z,22.08
2022-09-13T04:12:02.610Z,23.65
2022-09-13T04:14:30.091Z,22.27
2022-09-13T04:16:58.164Z,18.52
2022-09-13T04:19:26.287Z,20.65
2022-09-13T04:21:55.980Z,22.65
2022-09-13T04:24:26.957Z,19.48
2022-09-13T04:26:54.602Z,26.92
2022-09-13T04:29:23.172Z,20.60
2022-09-13T04:31:51.410Z,18.58
2022-09-13T04:34:18.755Z,19.00
2022-09-13T04:36:46.472Z,28.52
2022-09-13T04:39:16.300Z,23.15
2022-09-13T04:41:46.049Z,19.00
2022-09-13T04:44:13.321Z,23.27
2022-09-13T04:46:40.193Z,20.60
2022-09-13T04:49:07.238Z,21.48
2022-09-13T04:51:34.139Z,24.33
2022-09-13T04:54:01.050Z,23.75
2022-09-13T04:56:28.301Z,24.40
2022-09-13T04:58:55.877Z,31.90
2022-09-13T05:01:27.706Z,36.50
2022-09-13T05:03:55.504Z,25.15
2022-09-13T05:06:23.038Z,35.85
2022-09-13T05:08:53.050Z,41.40
2022-09-13T05:11:20.180Z,31.67
2022-09-13T05:13:55.278Z,35.00
2022-09-13T05:16:24.458Z,25.58
2022-09-13T05:18:52.289Z,31.40
2022-09-13T05:21:19.934Z,28.13
2022-09-13T05:23:50.415Z,21.27
2022-09-13T05:26:18.171Z,20.88
2022-09-13T05:28:45.200Z,38.95
2022-09-13T05:31:25.038Z,40.90
2022-09-13T05:34:00.783Z,35.05
2022-09-13T05:36:28.667Z,30.45
2022-09-13T05:39:18.628Z,38.17
2022-09-13T05:41:43.474Z,24.95
2022-09-13T05:44:13.126Z,34.85
2022-09-13T05:46:41.680Z,22.77
2022-09-13T05:49:08.700Z,23.63
2022-09-13T05:51:36.474Z,16.00
2022-09-13T05:54:03.586Z,18.00
2022-09-13T05:56:32.242Z,19.23
2022-09-13T05:58:59.418Z,14.68
2022-09-13T06:01:28.735Z,15.60
2022-09-13T06:03:57.709Z,13.57
2022-09-13T06:06:25.475Z,13.73
2022-09-13T06:08:53.837Z,18.15
2022-09-13T06:11:21.145Z,15.23
2022-09-13T06:13:47.979Z,18.00
2022-09-13T06:16:16.243Z,15.68
2022-09-13T06:18:44.012Z,12.55
2022-09-13T06:21:18.096Z,11.82
2022-09-13T06:23:51.171Z,10.73
2022-09-13T06:26:20.411Z,10.77
2022-09-13T06:28:49.234Z,8.52
2022-09-13T06:31:18.216Z,10.23
2022-09-13T06:33:45.778Z,6.05
2022-09-13T06:36:15.020Z,6.95
2022-09-13T06:38:42.325Z,8.60
2022-09-13T06:41:12.529Z,9.77
2022-09-13T06:43:40.253Z,11.90
2022-09-13T06:46:21.530Z,5.28
2022-09-13T06:48:51.600Z,5.80
2022-09-13T06:51:23.924Z,6.72
2022-09-13T06:53:52.086Z,8.45
2022-09-13T06:56:22.717Z,8.82
2022-09-13T06:58:52.214Z,7.32
2022-09-13T07:01:28.207Z,7.45
2022-09-13T07:04:01.207Z,6.95
2022-09-13T07:06:31.136Z,6.78
2022-09-13T07:08:59.976Z,5.50
2022-09-13T07:11:30.290Z,4.82
2022-09-13T07:13:58.691Z,5.38
2022-09-13T07:16:28.109Z,6.43
2022-09-13T07:18:57.375Z,6.57
2022-09-13T07:21:25.279Z,4.65
2022-09-13T07:23:53.388Z,6.50
2022-09-13T07:26:21.062Z,3.80
2022-09-13T07:28:52.228Z,7.22
2022-09-13T07:31:24.975Z,6.63
2022-09-13T07:34:00.594Z,4.05
2022-09-13T07:36:29.185Z,4.57
2022-09-13T07:38:56.068Z,7.80
2022-09-13T07:41:24.674Z,4.22
2022-09-13T07:43:52.459Z,4.97
2022-09-13T07:46:24.610Z,3.70
2022-09-13T07:48:54.568Z,6.20
2022-09-13T07:51:24.633Z,3.75
2022-09-13T07:53:57.293Z,6.00
2022-09-13T07:56:36.092Z,3.10
2022-09-13T07:59:06.059Z,3.47
2022-09-13T08:01:38.742Z,3.95
2022-09-13T08:04:09.511Z,5.07
2022-09-13T08:06:37.992Z,2.80
2022-09-13T08:09:07.550Z,3.80
2022-09-13T08:11:40.539Z,3.47
2022-09-13T08:14:09.732Z,2.60
2022-09-13T08:16:37.272Z,3.03
2022-09-13T08:19:05.387Z,7.30
2022-09-13T08:21:38.198Z,5.07
2022-09-13T08:24:07.267Z,4.57
2022-09-13T08:26:35.963Z,3.88
2022-09-13T08:29:05.246Z,3.80
2022-09-13T08:31:33.090Z,5.10
2022-09-13T08:34:00.051Z,5.25
2022-09-13T08:36:28.283Z,6.00
2022-09-13T08:39:00.539Z,5.95
2022-09-13T08:41:44.438Z,6.93
2022-09-13T08:44:36.729Z,2.97
2022-09-13T08:47:24.848Z,3.58
2022-09-13T08:50:00.213Z,5.00
2022-09-13T08:52:41.852Z,3.65
2022-09-13T08:55:20.302Z,2.72
2022-09-13T08:58:11.494Z,3.25
2022-09-13T09:00:44.416Z,2.50
2022-09-13T09:06:14.574Z,2.10
2022-09-13T09:09:08.233Z,2.50
2022-09-13T09:11:44.403Z,2.30
2022-09-13T09:14:35.654Z,2.58
2022-09-13T09:17:07.277Z,2.67
2022-09-13T09:19:53.457Z,2.78
2022-09-13T09:22:24.721Z,5.20
2022-09-13T09:24:55.722Z,2.08
2022-09-13T09:27:23.350Z,3.28
2022-09-13T09:29:53.776Z,2.58
2022-09-13T09:32:36.303Z,2.47
2022-09-13T09:35:15.488Z,3.15
2022-09-13T09:37:46.023Z,1.95
2022-09-13T09:40:14.580Z,3.22
2022-09-13T09:42:47.788Z,3.58
2022-09-13T09:45:33.947Z,5.05
2022-09-13T09:48:13.083Z,6.72
2022-09-13T09:50:46.594Z,5.28
2022-09-13T09:53:29.418Z,4.63
2022-09-13T09:56:16.714Z,5.20
2022-09-13T09:58:46.241Z,4.70
2022-09-13T10:01:34.212Z,6.03
2022-09-13T10:04:09.078Z,3.63
2022-09-13T10:06:38.859Z,3.03
2022-09-13T10:09:14.911Z,2.90
2022-09-13T10:11:46.504Z,3.65
2022-09-13T10:14:28.300Z,3.90
2022-09-13T10:17:21.318Z,5.72
2022-09-13T10:19:59.420Z,5.90
2022-09-13T10:22:28.075Z,6.88
2022-09-13T10:24:55.243Z,7.40
2022-09-13T10:27:44.135Z,7.35
2022-09-13T10:30:28.236Z,3.45
2022-09-13T10:32:59.064Z,7.97
2022-09-13T10:35:26.746Z,5.63
2022-09-13T10:37:53.726Z,2.80
2022-09-13T10:40:29.083Z,3.67
2022-09-13T10:43:01.985Z,4.95
2022-09-13T10:45:31.603Z,5.88
2022-09-13T10:48:13.102Z,7.20
2022-09-13T10:50:40.017Z,3.63
2022-09-13T10:53:31.565Z,3.00
2022-09-13T10:55:58.438Z,5.75
2022-09-13T10:58:25.269Z,7.47
2022-09-13T11:00:57.983Z,2.35
2022-09-13T11:03:53.079Z,2.35
2022-09-13T11:06:30.665Z,4.88
2022-09-13T11:09:17.983Z,2.55
2022-09-13T11:12:10.697Z,2.88
2022-09-13T11:14:46.451Z,2.85
2022-09-13T11:17:50.852Z,2.55
2022-09-13T11:20:59.686Z,3.13
2022-09-13T11:23:35.795Z,3.60
2022-09-13T11:26:18.546Z,5.93
2022-09-13T11:28:51.097Z,3.17
2022-09-13T11:31:45.236Z,3.00
2022-09-13T11:34:28.945Z,2.97
2022-09-13T11:37:14.713Z,2.63
2022-09-13T11:39:50.458Z,4.60
2022-09-13T11:42:35.563Z,6.90
2022-09-13T11:45:21.961Z,3.55
2022-09-13T11:48:26.212Z,5.45
2022-09-13T11:51:25.354Z,3.13
2022-09-13T11:54:18.266Z,4.35
2022-09-13T11:59:27.622Z,3.65
2022-09-13T12:02:12.192Z,2.15
2022-09-13T12:04:44.380Z,2.78
2022-09-13T12:07:19.401Z,5.03
2022-09-13T12:09:57.746Z,2.05
2022-09-13T12:12:29.379Z,5.43
2022-09-13T12:15:08.008Z,3.55
2022-09-13T12:17:43.528Z,5.07
2022-09-13T12:20:33.452Z,2.65
2022-09-13T12:23:04.866Z,4.43
2022-09-13T12:25:57.562Z,4.43
2022-09-13T12:28:37.553Z,5.07
2022-09-13T12:31:19.783Z,3.92
2022-09-13T12:33:48.734Z,5.50
2022-09-13T12:36:45.375Z,4.28
2022-09-13T12:39:29.131Z,4.70
2022-09-13T12:42:18.455Z,2.97
2022-09-13T12:45:23.195Z,2.75
2022-09-13T12:48:05.431Z,3.30
2022-09-13T12:50:43.828Z,3.33
2022-09-13T12:53:29.133Z,3.90
2022-09-13T12:56:31.298Z,4.50
2022-09-13T12:59:09.633Z,2.80
2022-09-13T13:01:36.777Z,6.72
2022-09-13T13:04:28.930Z,3.67
2022-09-13T13:07:16.352Z,9.45
2022-09-13T13:09:44.669Z,7.78
2022-09-13T13:12:25.048Z,6.22
2022-09-13T13:14:53.801Z,5.25
2022-09-13T13:17:49.463Z,5.72
2022-09-13T13:20:53.241Z,7.60
2022-09-13T13:26:09.702Z,6.30
2022-09-13T13:28:45.708Z,3.72
2022-09-13T13:31:24.753Z,4.88
2022-09-13T13:34:02.058Z,5.35
2022-09-13T13:36:35.250Z,7.22
2022-09-13T13:39:02.992Z,3.50
2022-09-13T13:41:38.486Z,5.20
2022-09-13T13:44:23.408Z,9.43
2022-09-13T13:46:55.626Z,8.48
2022-09-13T13:49:31.261Z,8.77
2022-09-13T13:52:10.336Z,3.80
2022-09-13T13:54:45.920Z,8.13
2022-09-13T13:57:45.229Z,6.65
2022-09-13T14:00:16.751Z,5.15
2022-09-13T14:02:53.620Z,2.72
2022-09-13T14:05:32.603Z,6.38
2022-09-13T14:08:33.649Z,3.28
2022-09-13T14:11:11.075Z,5.95
2022-09-13T14:13:56.125Z,4.78
2022-09-13T14:16:29.352Z,4.05
2022-09-13T14:19:14.999Z,10.00
2022-09-13T14:21:42.593Z,2.97
2022-09-13T14:24:16.807Z,5.50
2022-09-13T14:26:44.782Z,3.58
2022-09-13T14:29:21.132Z,4.30
2022-09-13T14:31:53.633Z,9.02
2022-09-13T14:34:28.011Z,7.30
2022-09-13T14:36:57.780Z,8.57
2022-09-13T14:39:25.625Z,3.65
2022-09-13T14:42:12.886Z,9.90
2022-09-13T14:44:48.253Z,3.20
2022-09-13T14:47:27.379Z,3.97
2022-09-13T14:50:04.053Z,3.20
2022-09-13T14:52:36.259Z,5.25
2022-09-13T14:55:09.890Z,4.33
2022-09-13T14:57:42.201Z,6.63
2022-09-13T15:00:15.010Z,3.80
2022-09-13T15:03:05.167Z,3.67
2022-09-13T15:05:35.188Z,8.20
2022-09-13T15:08:40.354Z,6.03
2022-09-13T15:11:13.243Z,5.57
2022-09-13T15:13:42.860Z,5.65
2022-09-13T15:16:35.823Z,3.50
2022-09-13T15:19:17.013Z,5.22
2022-09-13T15:21:45.634Z,4.45
2022-09-13T15:24:29.575Z,4.40
2022-09-13T15:27:05.898Z,3.72
2022-09-13T15:29:35.022Z,5.28
2022-09-13T15:32:06.679Z,7.35
2022-09-13T15:34:33.774Z,9.10
2022-09-13T15:37:11.825Z,3.33
2022-09-13T15:39:50.585Z,3.63
2022-09-13T15:42:17.823Z,3.97
2022-09-13T15:44:44.723Z,3.83
2022-09-13T15:47:18.309Z,5.40
2022-09-13T15:49:51.087Z,5.22
2022-09-13T15:52:19.927Z,6.38
2022-09-13T15:54:49.802Z,8.02
2022-09-13T15:57:21.685Z,6.13
2022-09-13T15:59:49.023Z,4.78
2022-09-13T16:02:28.581Z,6.43
2022-09-13T16:04:56.352Z,9.32
2022-09-13T16:07:24.825Z,8.18
2022-09-13T16:09:53.411Z,3.38
2022-09-13T16:12:23.561Z,5.70
2022-09-13T16:14:50.517Z,4.55
2022-09-13T16:17:24.709Z,8.90
2022-09-13T16:19:52.386Z,6.05
2022-09-13T16:22:19.280Z,6.97
2022-09-13T16:24:46.526Z,8.00
2022-09-13T16:27:15.075Z,8.57
2022-09-13T16:29:42.176Z,11.25
2022-09-13T16:32:09.818Z,6.32
2022-09-13T16:34:36.664Z,4.90
2022-09-13T16:37:03.565Z,8.82
2022-09-13T16:39:30.454Z,11.23
2022-09-13T16:41:57.327Z,12.32
2022-09-13T16:44:24.283Z,9.32
2022-09-13T16:46:51.219Z,10.93
2022-09-13T16:49:18.205Z,6.95
2022-09-13T16:51:45.428Z,11.75
2022-09-13T16:54:12.409Z,11.65
2022-09-13T16:56:39.251Z,11.85
2022-09-13T16:59:06.111Z,12.07
2022-09-13T17:01:33.263Z,24.27
2022-09-13T17:04:00.269Z,16.88
2022-09-13T17:06:27.895Z,16.98
2022-09-13T17:09:03.646Z,13.68
2022-09-13T17:11:33.790Z,11.82
2022-09-13T17:14:03.627Z,8.88
2022-09-13T17:16:35.698Z,12.35
2022-09-13T17:19:06.415Z,17.13
2022-09-13T17:21:34.058Z,10.65
2022-09-13T17:24:02.122Z,15.43
2022-09-13T17:26:29.252Z,13.32
2022-09-13T17:28:56.172Z,13.18
2022-09-13T17:31:23.542Z,11.98
2022-09-13T17:33:50.885Z,11.13
2022-09-13T17:36:17.874Z,11.85
2022-09-13T17:38:45.650Z,11.82
2022-09-13T17:41:13.693Z,11.90
2022-09-13T17:43:42.918Z,9.98
2022-09-13T17:46:22.457Z,10.27
2022-09-13T17:48:52.222Z,9.70
2022-09-13T17:51:25.451Z,9.43
2022-09-13T17:56:27.252Z,10.52
2022-09-13T17:58:54.120Z,10.02
2022-09-13T18:01:21.067Z,8.18
2022-09-13T18:03:48.202Z,11.00
2022-09-13T18:06:15.221Z,9.13
2022-09-13T18:08:42.973Z,11.30
2022-09-13T18:11:19.407Z,10.70
2022-09-13T18:13:49.366Z,18.88
2022-09-13T18:16:21.379Z,12.63
2022-09-13T18:18:49.919Z,14.27
2022-09-13T18:21:19.286Z,15.18
2022-09-13T18:23:51.167Z,12.90
2022-09-13T18:26:20.873Z,13.07
2022-09-13T18:28:48.498Z,21.85
2022-09-13T18:31:17.987Z,14.70
2022-09-13T18:33:45.943Z,13.52
2022-09-13T18:36:15.983Z,14.27
2022-09-13T18:38:44.989Z,16.92
2022-09-13T18:41:17.910Z,12.88
2022-09-13T18:43:46.375Z,17.35
2022-09-13T18:46:16.232Z,14.30
2022-09-13T18:48:45.652Z,18.63
2022-09-13T18:51:18.379Z,15.07
2022-09-13T18:53:46.190Z,18.63
2022-09-13T18:56:15.301Z,15.40
2022-09-13T18:58:43.577Z,18.15
2022-09-13T19:01:12.956Z,14.02
2022-09-13T19:03:46.634Z,22.13
2022-09-13T19:06:21.093Z,19.65
2022-09-13T19:08:49.818Z,16.50
2022-09-13T19:11:42.248Z,14.13
2022-09-13T19:14:05.624Z,15.27
2022-09-13T19:16:32.801Z,15.80
2022-09-13T19:18:59.928Z,17.17
2022-09-13T19:21:30.102Z,15.00
2022-09-13T19:24:00.998Z,14.27
2022-09-13T19:26:36.467Z,15.15
2022-09-13T19:29:08.675Z,15.73
2022-09-13T19:31:38.713Z,15.40
2022-09-13T19:34:06.404Z,19.83
2022-09-13T19:36:35.699Z,13.05
2022-09-13T19:39:04.054Z,12.13
2022-09-13T19:41:31.051Z,14.13
2022-09-13T19:44:00.629Z,14.15
2022-09-13T19:46:32.989Z,12.43
2022-09-13T19:49:01.693Z,15.00
2022-09-13T19:51:31.241Z,14.75
2022-09-13T19:53:59.484Z,15.13
2022-09-13T19:56:34.753Z,13.13
2022-09-13T19:59:03.040Z,14.27
2022-09-13T20:01:35.231Z,13.70
2022-09-13T20:04:04.923Z,13.00
2022-09-13T20:06:42.932Z,12.23
2022-09-13T20:09:11.319Z,18.48
2022-09-13T20:11:42.406Z,12.88
2022-09-13T20:14:10.767Z,13.23
2022-09-13T20:16:39.952Z,13.82
2022-09-13T20:19:36.309Z,12.13
2022-09-13T20:21:57.755Z,12.57
2022-09-13T20:24:24.583Z,12.25
2022-09-13T20:26:52.316Z,14.60
2022-09-13T20:29:19.650Z,13.02
2022-09-13T20:31:46.620Z,12.65
2022-09-13T20:34:17.558Z,15.13
2022-09-13T20:36:45.582Z,12.63
2022-09-13T20:39:15.031Z,14.98
2022-09-13T20:41:43.368Z,12.07
2022-09-13T20:44:10.855Z,11.57
2022-09-13T20:46:40.303Z,11.45
2022-09-13T20:49:09.220Z,12.85
2022-09-13T20:51:37.334Z,12.70
2022-09-13T20:54:04.951Z,13.15
2022-09-13T20:56:35.582Z,13.88
2022-09-13T20:59:02.861Z,12.48
2022-09-13T21:01:31.618Z,13.85
2022-09-13T21:03:59.787Z,14.43
2022-09-13T21:06:29.465Z,14.30
2022-09-13T21:08:59.897Z,13.70
2022-09-13T21:11:34.939Z,16.15
2022-09-13T21:14:04.875Z,13.50
2022-09-13T21:16:34.464Z,15.13
2022-09-13T21:19:01.662Z,11.70
2022-09-13T21:21:31.514Z,13.88
2022-09-13T21:24:00.522Z,11.65
2022-09-13T21:26:28.975Z,11.63
2022-09-13T21:28:56.969Z,17.52
2022-09-13T21:31:29.979Z,12.88
2022-09-13T21:33:59.324Z,12.93
2022-09-13T21:36:27.617Z,11.93
2022-09-13T21:38:56.029Z,12.70
2022-09-13T21:41:24.709Z,11.73
2022-09-13T21:43:51.917Z,17.08
2022-09-13T21:46:22.286Z,14.90
2022-09-13T21:48:51.871Z,13.20
2022-09-13T21:51:26.483Z,12.55
2022-09-13T21:53:58.687Z,13.30
2022-09-13T21:56:28.571Z,12.38
2022-09-13T21:59:04.461Z,12.30
2022-09-13T22:01:37.198Z,17.73
2022-09-13T22:04:04.412Z,12.48
2022-09-13T22:06:34.590Z,12.57
2022-09-13T22:09:04.399Z,10.27
2022-09-13T22:11:38.721Z,14.02
2022-09-13T22:14:07.402Z,9.80
2022-09-13T22:16:36.836Z,13.35
2022-09-13T22:19:10.146Z,13.23
2022-09-13T22:24:07.902Z,11.20
2022-09-13T22:26:38.531Z,10.05
2022-09-13T22:29:05.385Z,12.20
2022-09-13T22:31:35.319Z,12.00
2022-09-13T22:34:03.498Z,11.18
2022-09-13T22:36:30.720Z,11.40
2022-09-13T22:38:58.689Z,12.23
2022-09-13T22:41:28.490Z,10.32
2022-09-13T22:43:55.929Z,9.93
2022-09-13T22:46:31.426Z,15.10
2022-09-13T22:48:58.452Z,10.55
2022-09-13T22:51:25.736Z,13.98
2022-09-13T22:53:54.170Z,12.98
2022-09-13T22:56:32.866Z,10.68
2022-09-13T22:59:17.956Z,12.55
2022-09-13T23:01:45.209Z,12.23
2022-09-13T23:04:12.850Z,14.48
2022-09-13T23:06:40.428Z,11.80
2022-09-13T23:09:08.703Z,11.40
2022-09-13T23:11:38.126Z,11.57
2022-09-13T23:14:07.771Z,8.80
2022-09-13T23:16:37.478Z,11.80
2022-09-13T23:19:05.183Z,10.18
2022-09-13T23:21:35.803Z,10.85
2022-09-13T23:24:04.302Z,7.95
2022-09-13T23:26:31.674Z,9.13
2022-09-13T23:29:00.538Z,7.63
2022-09-13T23:31:35.808Z,12.50
2022-09-13T23:34:05.342Z,9.13
2022-09-13T23:36:37.309Z,12.15
2022-09-13T23:39:05.808Z,9.27
2022-09-13T23:41:33.371Z,13.90
2022-09-13T23:44:01.347Z,13.45
2022-09-13T23:46:29.132Z,10.10
2022-09-13T23:48:56.597Z,12.05
2022-09-13T23:51:25.397Z,8.70
2022-09-13T23:53:57.020Z,13.77
2022-09-13T23:56:29.077Z,11.63
2022-09-13T23:59:00.267Z,8.75
